createdAt,value
2022-11-30T00:02:00.475Z,2.29
2022-11-30T00:07:02.122Z,2.32
2022-11-30T00:12:03.999Z,2.26
2022-11-30T00:17:05.686Z,2.28
2022-11-30T00:22:07.345Z,2.24
2022-11-30T00:27:08.890Z,2.20
2022-11-30T00:32:10.442Z,2.19
2022-11-30T00:37:12.017Z,2.12
2022-11-30T00:42:13.730Z,2.11
2022-11-30T00:47:15.268Z,2.07
2022-11-30T00:52:16.815Z,2.08
2022-11-30T00:57:18.414Z,2.08
2022-11-30T01:02:20.269Z,1.99
2022-11-30T01:07:21.907Z,1.84
2022-11-30T01:12:23.545Z,1.79
2022-11-30T01:17:25.119Z,1.75
2022-11-30T01:22:26.678Z,1.77
2022-11-30T01:27:28.411Z,1.75
2022-11-30T01:32:29.982Z,1.74
2022-11-30T01:37:31.581Z,1.86
2022-11-30T01:42:33.294Z,1.71
2022-11-30T01:47:39.360Z,1.70
2022-11-30T01:52:46.876Z,1.63
2022-11-30T01:57:52.506Z,1.74
2022-11-30T02:03:02.676Z,1.50
2022-11-30T02:08:06.066Z,1.63
2022-11-30T02:13:39.192Z,1.46
2022-11-30T02:18:55.698Z,1.70
2022-11-30T02:24:26.659Z,1.54
2022-11-30T02:29:34.720Z,1.38
2022-11-30T02:34:38.118Z,1.55
2022-11-30T02:39:39.686Z,1.55
2022-11-30T02:44:45.645Z,1.52
2022-11-30T02:50:04.609Z,1.35
2022-11-30T02:55:09.362Z,1.31
2022-11-30T03:00:12.722Z,1.27
2022-11-30T03:05:14.395Z,1.21
2022-11-30T03:10:15.969Z,0.96
2022-11-30T03:15:17.587Z,1.03
2022-11-30T03:20:19.156Z,0.88
2022-11-30T03:25:20.827Z,0.93
2022-11-30T03:30:22.479Z,0.92
2022-11-30T03:35:24.684Z,1.08
2022-11-30T03:40:26.225Z,1.35
2022-11-30T03:45:27.803Z,1.30
2022-11-30T03:50:29.389Z,1.23
2022-11-30T03:55:30.929Z,1.14
2022-11-30T04:00:32.471Z,1.11
2022-11-30T04:05:34.119Z,0.94
2022-11-30T04:10:36.016Z,0.93
2022-11-30T04:15:37.623Z,0.95
2022-11-30T04:20:40.734Z,1.18
2022-11-30T04:25:42.620Z,1.17
2022-11-30T04:30:45.939Z,1.16
2022-11-30T04:35:52.060Z,1.25
2022-11-30T04:40:54.389Z,1.36
2022-11-30T04:45:55.966Z,1.33
2022-11-30T04:51:08.559Z,1.48
2022-11-30T04:56:12.010Z,1.32
2022-11-30T05:01:13.612Z,1.45
2022-11-30T05:06:15.164Z,1.65
2022-11-30T05:11:16.731Z,1.28
2022-11-30T05:16:18.335Z,1.46
2022-11-30T05:21:19.919Z,1.28
2022-11-30T05:26:21.520Z,1.10
2022-11-30T05:31:23.139Z,1.12
2022-11-30T05:36:24.760Z,1.36
2022-11-30T05:41:26.430Z,1.58
2022-11-30T05:46:28.071Z,1.38
2022-11-30T05:51:29.763Z,1.33
2022-11-30T05:56:31.371Z,1.43
2022-11-30T06:01:32.993Z,1.30
2022-11-30T06:06:34.645Z,1.28
2022-11-30T06:11:36.311Z,1.21
2022-11-30T06:16:39.795Z,1.29
2022-11-30T06:21:41.536Z,1.34
2022-11-30T06:26:43.153Z,1.42
2022-11-30T06:31:44.746Z,1.40
2022-11-30T06:36:46.603Z,1.36
2022-11-30T06:41:53.074Z,1.47
2022-11-30T06:46:56.090Z,1.60
2022-11-30T06:51:57.737Z,1.70
2022-11-30T06:56:59.391Z,1.64
2022-11-30T07:02:07.485Z,1.55
2022-11-30T07:07:10.491Z,1.38
2022-11-30T07:12:12.197Z,1.36
2022-11-30T07:17:13.796Z,1.52
2022-11-30T07:22:15.416Z,1.65
2022-11-30T07:27:16.970Z,1.74
2022-11-30T07:32:19.358Z,1.70
2022-11-30T07:37:20.965Z,1.71
2022-11-30T07:42:23.008Z,1.87
2022-11-30T07:47:24.536Z,1.57
2022-11-30T07:52:26.103Z,1.60
2022-11-30T07:57:27.755Z,1.66
2022-11-30T08:02:29.369Z,1.71
2022-11-30T08:07:31.019Z,1.81
2022-11-30T08:12:32.661Z,1.65
2022-11-30T08:17:34.289Z,1.96
2022-11-30T08:22:36.274Z,1.91
2022-11-30T08:27:37.964Z,1.92
2022-11-30T08:32:39.545Z,1.92
2022-11-30T08:37:41.089Z,1.75
2022-11-30T08:42:42.647Z,2.03
2022-11-30T08:47:44.222Z,1.86
2022-11-30T08:52:45.777Z,2.02
2022-11-30T08:57:47.353Z,1.61
2022-11-30T09:02:48.950Z,1.77
2022-11-30T09:07:50.633Z,1.90
2022-11-30T09:12:52.218Z,2.07
2022-11-30T09:17:54.111Z,2.07
2022-11-30T09:22:55.668Z,2.03
2022-11-30T09:27:57.258Z,2.12
2022-11-30T09:33:00.520Z,2.13
2022-11-30T09:38:02.070Z,2.01
2022-11-30T09:43:22.048Z,2.12
2022-11-30T09:48:32.208Z,2.13
2022-11-30T09:53:51.594Z,2.20
2022-11-30T09:59:08.497Z,2.18
2022-11-30T10:04:23.848Z,2.08
2022-11-30T10:10:23.743Z,2.20
2022-11-30T10:15:35.544Z,2.14
2022-11-30T10:21:09.456Z,2.07
2022-11-30T10:26:24.923Z,2.10
2022-11-30T10:31:34.781Z,2.17
2022-11-30T10:36:46.363Z,2.12
2022-11-30T10:41:53.885Z,2.02
2022-11-30T10:47:03.087Z,2.02
2022-11-30T10:52:08.869Z,2.17
2022-11-30T10:57:10.538Z,2.10
2022-11-30T11:02:33.849Z,2.01
2022-11-30T11:07:56.395Z,2.00
2022-11-30T11:12:59.437Z,2.37
2022-11-30T11:18:26.891Z,2.24
2022-11-30T11:23:39.774Z,2.13
2022-11-30T11:28:45.568Z,1.94
2022-11-30T11:33:52.707Z,2.22
2022-11-30T11:38:54.758Z,2.16
2022-11-30T11:44:23.148Z,2.23
2022-11-30T11:49:28.582Z,2.01
2022-11-30T11:54:47.137Z,2.28
2022-11-30T12:00:16.334Z,2.16
2022-11-30T12:05:21.122Z,2.40
2022-11-30T12:16:00.912Z,2.35
2022-11-30T12:21:11.696Z,2.29
2022-11-30T12:26:38.316Z,2.36
2022-11-30T12:32:00.110Z,1.87
2022-11-30T12:37:01.628Z,1.88
2022-11-30T12:42:18.840Z,2.00
2022-11-30T12:47:46.545Z,1.97
2022-11-30T12:53:07.428Z,2.09
2022-11-30T12:58:36.693Z,2.05
2022-11-30T13:03:48.029Z,2.13
2022-11-30T13:09:14.694Z,2.04
2022-11-30T13:14:22.398Z,2.18
2022-11-30T13:19:40.938Z,2.26
2022-11-30T13:24:49.905Z,2.25
2022-11-30T13:30:21.712Z,2.06
2022-11-30T13:35:29.253Z,1.98
2022-11-30T13:40:31.327Z,2.10
2022-11-30T13:45:34.737Z,1.90
2022-11-30T13:50:38.756Z,2.00
2022-11-30T13:55:42.968Z,2.08
2022-11-30T14:00:58.354Z,1.93
2022-11-30T14:06:01.784Z,1.96
2022-11-30T14:11:38.931Z,1.92
2022-11-30T14:16:42.165Z,1.92
2022-11-30T14:21:44.905Z,1.97
2022-11-30T14:26:50.295Z,1.87
2022-11-30T14:31:58.534Z,1.95
2022-11-30T14:37:03.641Z,2.05
2022-11-30T14:42:05.709Z,2.12
2022-11-30T14:47:20.564Z,1.86
2022-11-30T14:52:59.474Z,1.97
2022-11-30T14:58:32.372Z,2.13
2022-11-30T15:03:40.387Z,1.86
2022-11-30T15:08:49.975Z,1.80
2022-11-30T15:13:56.363Z,1.90
2022-11-30T15:18:59.648Z,1.99
2022-11-30T15:24:01.749Z,1.94
2022-11-30T15:29:06.478Z,1.92
2022-11-30T15:34:19.144Z,1.98
2022-11-30T15:39:23.683Z,2.08
2022-11-30T15:44:47.225Z,2.06
2022-11-30T15:49:54.782Z,1.98
2022-11-30T15:54:59.702Z,2.17
2022-11-30T16:00:16.432Z,2.08
2022-11-30T16:05:20.907Z,1.91
2022-11-30T16:10:40.816Z,2.04
2022-11-30T16:15:47.398Z,1.99
2022-11-30T16:20:52.040Z,2.04
2022-11-30T16:25:54.148Z,2.10
2022-11-30T16:31:00.386Z,2.05
2022-11-30T16:36:06.692Z,2.11
2022-11-30T16:41:22.934Z,2.10
2022-11-30T16:46:27.116Z,2.10
2022-11-30T16:51:31.522Z,2.17
2022-11-30T16:56:39.299Z,1.99
2022-11-30T17:01:47.338Z,2.08
2022-11-30T17:06:50.923Z,2.10
2022-11-30T17:11:53.109Z,2.12
2022-11-30T17:16:54.603Z,2.08
2022-11-30T17:21:56.145Z,2.12
2022-11-30T17:26:57.646Z,2.12
2022-11-30T17:31:59.064Z,2.25
2022-11-30T17:37:00.629Z,2.27
2022-11-30T17:42:02.169Z,2.36
2022-11-30T17:47:03.575Z,2.40
2022-11-30T17:52:04.976Z,2.42
2022-11-30T17:57:06.654Z,2.52
2022-11-30T18:02:11.279Z,2.44
2022-11-30T18:07:12.865Z,2.43
2022-11-30T18:12:14.306Z,2.51
2022-11-30T18:17:15.758Z,2.51
2022-11-30T18:22:17.298Z,2.43
2022-11-30T18:27:18.715Z,2.44
2022-11-30T18:32:20.156Z,2.48
2022-11-30T18:37:21.626Z,2.53
2022-11-30T18:42:23.062Z,2.50
2022-11-30T18:47:24.505Z,2.72
2022-11-30T18:52:25.935Z,2.47
2022-11-30T18:57:27.468Z,2.49
2022-11-30T19:02:29.006Z,2.58
2022-11-30T19:07:31.883Z,2.42
2022-11-30T19:12:34.971Z,2.46
2022-11-30T19:17:36.752Z,2.40
2022-11-30T19:22:39.084Z,2.50
2022-11-30T19:27:41.318Z,2.40
2022-11-30T19:32:43.485Z,2.52
2022-11-30T19:37:45.590Z,2.35
2022-11-30T19:42:47.705Z,2.37
2022-11-30T19:47:49.814Z,2.36
2022-11-30T19:52:52.097Z,2.34
2022-11-30T19:57:53.989Z,2.39
2022-11-30T20:02:56.187Z,2.37
2022-11-30T20:07:58.455Z,2.28
2022-11-30T20:12:59.973Z,2.26
2022-11-30T20:18:01.412Z,2.22
2022-11-30T20:23:03.506Z,2.25
2022-11-30T20:28:09.677Z,2.10
2022-11-30T20:33:13.854Z,2.16
2022-11-30T20:38:15.434Z,2.12
2022-11-30T20:43:16.863Z,2.18
2022-11-30T20:48:18.542Z,2.28
2022-11-30T20:53:20.109Z,2.14
2022-11-30T20:58:25.859Z,2.19
2022-11-30T21:03:28.076Z,2.24
2022-11-30T21:08:33.605Z,2.14
2022-11-30T21:13:35.153Z,2.20
2022-11-30T21:18:38.225Z,2.25
2022-11-30T21:23:39.821Z,2.04
2022-11-30T21:28:41.254Z,1.92
2022-11-30T21:33:48.455Z,2.03
2022-11-30T21:39:01.000Z,1.98
2022-11-30T21:44:07.822Z,2.11
2022-11-30T21:49:11.984Z,1.88
2022-11-30T21:54:15.421Z,1.96
2022-11-30T21:59:19.131Z,2.02
2022-11-30T22:04:20.653Z,2.06
2022-11-30T22:09:22.147Z,2.05
2022-11-30T22:14:24.293Z,2.16
2022-11-30T22:19:25.703Z,2.13
2022-11-30T22:24:27.122Z,2.20
2022-11-30T22:29:29.360Z,2.13
2022-11-30T22:34:32.231Z,2.12
2022-11-30T22:39:33.636Z,2.16
2022-11-30T22:44:35.072Z,2.11
2022-11-30T22:49:36.553Z,2.10
2022-11-30T22:54:38.097Z,2.27
2022-11-30T22:59:39.575Z,2.41
2022-11-30T23:04:41.005Z,2.12
2022-11-30T23:09:42.417Z,2.05
2022-11-30T23:14:43.840Z,2.07
2022-11-30T23:19:45.434Z,2.06
2022-11-30T23:24:47.074Z,1.97
2022-11-30T23:29:48.609Z,2.07
2022-11-30T23:34:50.941Z,1.92
2022-11-30T23:39:52.484Z,1.89
2022-11-30T23:45:01.063Z,1.98
2022-11-30T23:50:03.011Z,2.08
2022-11-30T23:55:04.855Z,1.93
